Current Conditions
Clear
Conditions



Pressure
1023.02 (mb) - 30.21 (inHG)
Visibility

9.9 (mimiles) - 16.0 (km)
   Temperature
73  °F
23°C
45  °F
Dewpoint
36  %
 Humidity
   Wind Speed
7  mph
6  kts
11  km/h
3.1  m/s
   Wind Direction
 70°
East North
East
   Airport Data
KAMG
Location Bacon County Airport 16 mi (25.74 km)
Metar :KAMG 141753Z AUTO 07006KT 10SM CLR 23/07 A3021 RMK AO2 SLP228 T02330072 10239 20128 58013
Fri 14th May 12:53 pm
   Raw Metar Info
Raw METAR is the most common format in the world for the transmission of observational weather data. It is highly standardized through the International Civil Aviation Organization (ICAO), which allows it to be understood throughout most of the world.
   API Info
Data Provided by
https://www.checkwx.com/weather/KAMG
   © Info
CSS/SVG/PHP scripts were developed by weather34.com for use in the weather34 template © 2015-2021

Guide Info provided by Metar-Wikipedia